Time;durP1;ratioP1;P1;durP2;ratioP2;P2;SDS_P1;SDS_P2;PMS_P1;PMS_P2;Temp;Humidity;BMP_temperature;BMP_pressure;BME280_temperature;BME280_humidity;BME280_pressure;Samples;Min_cycle;Max_cycle;Signal;HPM_P1;HPM_P2
2024/01/17 00:01:29;;;;;;;;;1.00;1.00;;;;;-2.77;80.41;98581.56;5099313;28;8834;-59
2024/01/17 00:03:57;;;;;;;;;2.20;2.20;;;;;-2.78;80.48;98579.00;5099609;28;8888;-59
2024/01/17 00:06:25;;;;;;;;;1.80;1.80;;;;;-2.83;80.67;98574.03;5098872;28;8822;-59
2024/01/17 00:08:53;;;;;;;;;4.00;4.00;;;;;-2.84;80.69;98580.16;5099278;28;8806;-58
2024/01/17 00:11:21;;;;;;;;;1.40;1.40;;;;;-2.87;80.73;98576.84;5098991;28;8891;-57
2024/01/17 00:13:49;;;;;;;;;1.00;1.00;;;;;-2.89;80.98;98570.88;5098686;28;9493;-56
2024/01/17 00:16:17;;;;;;;;;3.60;3.60;;;;;-2.93;80.76;98578.00;5098932;28;8839;-58
2024/01/17 00:18:44;;;;;;;;;1.80;1.00;;;;;-2.94;81.04;98571.09;5099403;28;8811;-58
2024/01/17 00:21:12;;;;;;;;;1.00;1.00;;;;;-2.95;80.87;98568.56;5098979;28;8815;-57
2024/01/17 00:23:40;;;;;;;;;3.00;3.00;;;;;-2.95;81.20;98568.56;5099193;28;8902;-59
2024/01/17 00:26:08;;;;;;;;;1.00;1.00;;;;;-2.97;80.95;98565.19;5098514;28;8852;-59
2024/01/17 00:28:36;;;;;;;;;1.00;1.00;;;;;-2.98;80.81;98561.75;5098520;28;8809;-57
2024/01/17 00:31:03;;;;;;;;;3.00;1.00;;;;;-2.97;81.12;98557.38;5097865;28;8816;-58
2024/01/17 00:33:32;;;;;;;;;1.40;1.00;;;;;-2.95;81.11;98560.75;5098320;28;8802;-58
2024/01/17 00:36:00;;;;;;;;;3.00;2.20;;;;;-2.96;81.31;98553.88;5098565;28;8838;-57
2024/01/17 00:38:27;;;;;;;;;1.00;1.00;;;;;-2.94;80.50;98541.63;5097623;28;8884;-59
2024/01/17 00:40:55;;;;;;;;;1.80;1.80;;;;;-2.93;81.03;98538.09;5098563;28;8833;-58
2024/01/17 00:43:23;;;;;;;;;0.40;0.40;;;;;-2.93;80.94;98525.94;5097727;28;8841;-60
2024/01/17 00:45:51;;;;;;;;;2.60;2.60;;;;;-2.92;80.79;98521.56;5097778;28;8826;-60
2024/01/17 00:48:18;;;;;;;;;0.00;0.00;;;;;-2.92;81.04;98511.16;5096798;28;8860;-58
2024/01/17 00:50:46;;;;;;;;;3.60;3.60;;;;;-2.94;80.94;98499.97;5097975;28;8830;-58
2024/01/17 00:53:14;;;;;;;;;3.00;3.00;;;;;-2.96;81.14;98489.63;5097531;28;8923;-59
2024/01/17 00:55:42;;;;;;;;;1.00;1.00;;;;;-2.96;81.11;98494.84;5097690;28;8818;-59
2024/01/17 00:58:10;;;;;;;;;3.00;3.00;;;;;-2.98;80.77;98488.00;5097274;28;8856;-60
2024/01/17 01:00:39;;;;;;;;;0.60;0.00;;;;;-2.99;81.00;98481.13;5097609;28;8842;-60
2024/01/17 01:03:07;;;;;;;;;1.00;1.00;;;;;-2.98;80.65;98477.59;5097453;28;8814;-60
2024/01/17 01:05:34;;;;;;;;;1.00;1.00;;;;;-2.97;81.26;98487.09;5097596;28;8814;-60
2024/01/17 01:08:02;;;;;;;;;1.80;1.80;;;;;-2.96;81.11;98483.59;5097435;28;8900;-59
2024/01/17 01:10:30;;;;;;;;;0.80;0.80;;;;;-2.97;81.36;98487.09;5096891;28;8837;-59
2024/01/17 01:12:58;;;;;;;;;1.40;1.40;;;;;-2.98;81.20;98477.59;5096262;28;8830;-60
2024/01/17 01:15:25;;;;;;;;;0.60;0.00;;;;;-3.00;81.03;98479.44;5097141;28;8826;-59
2024/01/17 01:17:53;;;;;;;;;0.00;0.00;;;;;-3.01;81.32;98475.16;5096998;28;8852;-60
2024/01/17 01:20:21;;;;;;;;;0.00;0.00;;;;;-3.04;81.37;98476.16;5096461;28;8942;-58
2024/01/17 01:22:49;;;;;;;;;0.00;0.00;;;;;-3.04;80.83;98475.31;5097221;28;8804;-60
2024/01/17 01:25:16;;;;;;;;;1.00;1.00;;;;;-3.04;81.00;98470.13;5097627;28;8831;-60
2024/01/17 01:27:44;;;;;;;;;3.00;2.20;;;;;-3.04;81.25;98463.13;5097275;28;8815;-60
2024/01/17 01:30:12;;;;;;;;;1.00;1.00;;;;;-3.05;81.36;98465.81;5095322;28;8810;-60
2024/01/17 01:32:39;;;;;;;;;1.00;1.00;;;;;-3.10;81.29;98460.00;5097003;28;8861;-60
2024/01/17 01:35:07;;;;;;;;;3.20;2.20;;;;;-3.13;81.18;98460.13;5097248;28;9510;-60
2024/01/17 01:37:35;;;;;;;;;1.00;1.00;;;;;-3.17;81.42;98448.19;5097473;28;8852;-60
2024/01/17 01:40:03;;;;;;;;;3.00;3.00;;;;;-3.22;81.14;98447.56;5097263;28;8857;-59
2024/01/17 01:42:31;;;;;;;;;2.60;2.60;;;;;-3.26;81.60;98452.09;5097390;28;8957;-60
2024/01/17 01:44:58;;;;;;;;;1.00;1.00;;;;;-3.30;81.40;98437.56;5097461;28;8977;-60
2024/01/17 01:47:26;;;;;;;;;0.00;0.00;;;;;-3.34;81.63;98435.19;5096603;28;8830;-60
2024/01/17 01:49:54;;;;;;;;;3.00;1.00;;;;;-3.38;81.76;98431.03;5096644;28;8808;-57
2024/01/17 01:52:22;;;;;;;;;0.00;0.00;;;;;-3.42;81.36;98426.91;5096913;28;8831;-59
2024/01/17 01:54:50;;;;;;;;;0.40;0.40;;;;;-3.44;81.53;98426.97;5097252;28;8857;-58
2024/01/17 01:57:18;;;;;;;;;1.00;1.00;;;;;-3.45;81.94;98416.63;5096417;28;8819;-60
2024/01/17 01:59:46;;;;;;;;;2.60;2.60;;;;;-3.46;81.63;98412.34;5096771;28;8821;-57
2024/01/17 02:02:14;;;;;;;;;1.00;1.00;;;;;-3.47;81.73;98410.69;5096549;28;8845;-60
2024/01/17 02:04:42;;;;;;;;;0.60;0.60;;;;;-3.42;81.91;98406.09;5096562;28;8821;-59
2024/01/17 02:07:09;;;;;;;;;1.00;1.00;;;;;-3.39;81.62;98405.94;5096536;28;8829;-59
2024/01/17 02:09:37;;;;;;;;;1.00;1.00;;;;;-3.36;81.47;98397.97;5096774;28;8891;-58
2024/01/17 02:12:05;;;;;;;;;1.00;1.00;;;;;-3.34;81.27;98398.75;5096831;28;8828;-57
2024/01/17 02:14:33;;;;;;;;;3.20;2.60;;;;;-3.33;81.75;98396.06;5096834;28;8825;-58
2024/01/17 02:17:00;;;;;;;;;3.60;3.00;;;;;-3.31;81.05;98388.19;5096770;28;8866;-59
2024/01/17 02:19:28;;;;;;;;;1.80;1.40;;;;;-3.29;81.62;98386.34;5095745;28;8954;-58
2024/01/17 02:21:56;;;;;;;;;1.00;1.00;;;;;-3.29;81.38;98381.16;5095609;28;9489;-59
2024/01/17 02:24:24;;;;;;;;;1.40;1.40;;;;;-3.30;81.60;98369.91;5095962;28;8823;-58
2024/01/17 02:26:52;;;;;;;;;1.00;1.00;;;;;-3.31;81.75;98365.63;5095921;28;8848;-60
2024/01/17 02:29:19;;;;;;;;;3.20;3.00;;;;;-3.30;81.53;98353.44;5095592;28;9480;-59
2024/01/17 02:31:47;;;;;;;;;3.00;3.00;;;;;-3.31;81.64;98351.78;5095290;28;8825;-59
2024/01/17 02:34:15;;;;;;;;;0.60;0.60;;;;;-3.29;81.30;98344.72;5094583;28;8834;-60
2024/01/17 02:36:43;;;;;;;;;2.60;2.60;;;;;-3.28;81.36;98336.00;5095626;28;8846;-59
2024/01/17 02:39:11;;;;;;;;;1.00;1.00;;;;;-3.24;81.31;98340.16;5094693;28;8836;-60
2024/01/17 02:41:38;;;;;;;;;3.00;3.00;;;;;-3.21;81.27;98332.16;5094374;28;8956;-58
2024/01/17 02:44:06;;;;;;;;;0.00;0.00;;;;;-3.19;81.42;98318.16;5095300;28;8822;-60
2024/01/17 02:46:34;;;;;;;;;3.80;3.80;;;;;-3.14;81.15;98316.19;5095040;28;8845;-58
2024/01/17 02:49:02;;;;;;;;;0.20;0.00;;;;;-3.05;80.98;98312.25;5093623;28;8887;-58
2024/01/17 02:51:31;;;;;;;;;3.00;3.00;;;;;-2.97;81.16;98302.28;5095612;28;8952;-58
2024/01/17 02:53:58;;;;;;;;;6.00;6.00;;;;;-2.93;80.42;98299.47;5095103;28;8838;-58
2024/01/17 02:56:26;;;;;;;;;2.60;1.00;;;;;-2.88;80.84;98299.22;5095758;28;8821;-59
2024/01/17 02:58:54;;;;;;;;;1.80;1.80;;;;;-2.86;80.75;98299.97;5094500;28;8850;-58
2024/01/17 03:01:21;;;;;;;;;3.60;2.20;;;;;-2.85;81.14;98288.63;5094620;28;8839;-59
2024/01/17 03:03:49;;;;;;;;;1.00;1.00;;;;;-2.83;80.87;98286.78;5096051;28;8823;-57
2024/01/17 03:06:18;;;;;;;;;4.00;4.00;;;;;-2.83;80.68;98276.38;5095547;28;8817;-58
2024/01/17 03:08:45;;;;;;;;;1.00;0.80;;;;;-2.83;80.64;98281.56;5075528;28;9497;-57
2024/01/17 03:11:14;;;;;;;;;1.40;1.00;;;;;-2.84;80.62;98270.34;5074733;28;9614;-57
2024/01/17 03:13:41;;;;;;;;;4.40;3.40;;;;;-2.86;81.06;98272.19;5087689;28;8838;-60
2024/01/17 03:16:09;;;;;;;;;1.80;1.00;;;;;-2.88;80.91;98278.41;5095377;28;8832;-58
2024/01/17 03:18:37;;;;;;;;;4.00;2.60;;;;;-2.90;81.20;98269.81;5096050;28;8822;-58
2024/01/17 03:21:05;;;;;;;;;5.60;5.60;;;;;-2.93;80.70;98260.41;5094838;28;8818;-58
2024/01/17 03:23:33;;;;;;;;;1.40;1.40;;;;;-2.94;81.15;98257.88;5094797;28;8932;-60
2024/01/17 03:26:01;;;;;;;;;1.00;1.00;;;;;-2.96;80.95;98257.97;5095447;28;8817;-58
2024/01/17 03:28:29;;;;;;;;;4.40;3.60;;;;;-2.98;81.15;98252.00;5095092;28;8837;-57
2024/01/17 03:30:57;;;;;;;;;3.60;3.00;;;;;-2.98;81.22;98246.78;5094534;28;9459;-58
2024/01/17 03:33:24;;;;;;;;;1.40;1.40;;;;;-2.97;81.34;98250.22;5094969;28;8833;-58
2024/01/17 03:35:52;;;;;;;;;3.00;3.00;;;;;-2.99;80.84;98245.13;5095710;28;8916;-58
2024/01/17 03:38:21;;;;;;;;;1.40;1.40;;;;;-3.00;80.93;98237.38;5095849;28;9536;-59
2024/01/17 03:40:49;;;;;;;;;1.80;1.80;;;;;-3.03;81.43;98242.75;5095599;28;8822;-57
2024/01/17 03:43:16;;;;;;;;;1.00;1.00;;;;;-3.06;80.84;98237.69;5095190;28;8822;-59
2024/01/17 03:45:45;;;;;;;;;2.60;1.40;;;;;-3.09;81.38;98238.69;5095576;28;8856;-57
2024/01/17 03:48:12;;;;;;;;;3.00;2.20;;;;;-3.11;81.57;98235.34;5094937;28;8850;-57
2024/01/17 03:50:40;;;;;;;;;1.80;1.80;;;;;-3.14;81.29;98232.91;5094269;28;8984;-57
2024/01/17 03:53:08;;;;;;;;;4.80;4.80;;;;;-3.16;81.19;98215.69;5094448;28;8802;-60
2024/01/17 03:55:36;;;;;;;;;2.20;2.20;;;;;-3.16;81.38;98205.28;5094672;28;8826;-58
2024/01/17 03:58:03;;;;;;;;;4.00;3.20;;;;;-3.16;81.64;98194.88;5095392;28;9018;-57
2024/01/17 04:00:31;;;;;;;;;0.80;0.80;;;;;-3.18;81.85;98192.34;5094244;28;8822;-57
2024/01/17 04:02:59;;;;;;;;;4.00;4.00;;;;;-3.19;81.46;98182.88;5094507;28;8809;-58
2024/01/17 04:05:26;;;;;;;;;1.00;1.00;;;;;-3.20;81.42;98178.59;5093457;28;8917;-59
2024/01/17 04:07:54;;;;;;;;;3.80;3.60;;;;;-3.21;81.55;98173.47;5094295;28;8906;-59
2024/01/17 04:10:22;;;;;;;;;1.20;1.20;;;;;-3.22;81.62;98164.84;5094216;28;8884;-58
2024/01/17 04:12:50;;;;;;;;;1.00;1.00;;;;;-3.22;81.45;98163.97;5094890;28;8802;-59
2024/01/17 04:15:17;;;;;;;;;1.00;1.00;;;;;-3.23;81.78;98167.50;5094659;28;8818;-57
2024/01/17 04:17:45;;;;;;;;;2.60;1.40;;;;;-3.24;81.38;98158.03;5093800;28;9504;-57
2024/01/17 04:20:13;;;;;;;;;3.20;2.60;;;;;-3.26;80.99;98145.09;5095755;28;8845;-58
2024/01/17 04:22:41;;;;;;;;;4.80;4.40;;;;;-3.23;81.74;98136.28;5096802;28;8834;-59
2024/01/17 04:25:08;;;;;;;;;3.60;3.00;;;;;-3.19;81.52;98124.81;5097559;28;8840;-58
2024/01/17 04:27:36;;;;;;;;;3.00;3.00;;;;;-3.15;81.80;98118.50;5098518;28;8822;-58
2024/01/17 04:30:03;;;;;;;;;2.40;2.20;;;;;-3.10;81.73;98103.47;5098319;28;8822;-57
2024/01/17 04:32:31;;;;;;;;;3.00;3.00;;;;;-3.08;81.38;98094.66;5097960;28;8922;-59
2024/01/17 04:35:00;;;;;;;;;2.60;2.60;;;;;-3.06;81.54;98078.94;5097930;28;8837;-59
2024/01/17 04:37:27;;;;;;;;;5.20;4.00;;;;;-3.03;81.26;98068.38;5097152;28;8836;-58
2024/01/17 04:39:55;;;;;;;;;3.00;1.80;;;;;-3.00;80.90;98073.41;5097486;28;8829;-58
2024/01/17 04:42:22;;;;;;;;;3.20;2.60;;;;;-2.98;81.34;98061.16;5097396;28;8828;-58
2024/01/17 04:44:50;;;;;;;;;4.00;3.40;;;;;-2.97;81.32;98055.00;5098371;28;9536;-59
2024/01/17 04:47:18;;;;;;;;;3.00;3.00;;;;;-2.97;81.17;98049.81;5098773;28;8932;-60
2024/01/17 04:49:46;;;;;;;;;3.00;3.00;;;;;-2.97;81.53;98049.81;5097887;28;8839;-60
2024/01/17 04:52:17;;;;;;;;;3.80;3.00;;;;;-2.98;81.62;98048.13;5097114;28;8841;-59
2024/01/17 04:54:45;;;;;;;;;2.20;1.40;;;;;-2.99;81.45;98042.09;5097100;28;8860;-58
2024/01/17 04:57:13;;;;;;;;;2.60;1.40;;;;;-3.00;81.09;98039.59;5097639;28;9423;-58
2024/01/17 04:59:40;;;;;;;;;3.00;3.00;;;;;-3.01;81.59;98032.69;5097403;28;8825;-59
2024/01/17 05:02:08;;;;;;;;;3.00;3.00;;;;;-2.99;81.54;98036.91;5096864;28;8892;-59
2024/01/17 05:04:36;;;;;;;;;1.00;1.00;;;;;-2.98;81.32;98027.31;5096721;28;8818;-59
2024/01/17 05:07:04;;;;;;;;;3.00;3.00;;;;;-3.01;81.40;98011.88;5096692;28;8968;-58
2024/01/17 05:09:32;;;;;;;;;1.00;0.60;;;;;-3.04;81.45;98004.25;5096456;28;8821;-57
2024/01/17 05:11:59;;;;;;;;;2.20;1.00;;;;;-3.06;81.69;98008.69;5096833;28;8825;-60
2024/01/17 05:14:27;;;;;;;;;3.00;3.00;;;;;-3.09;81.46;97998.47;5097150;28;8874;-59
2024/01/17 05:16:55;;;;;;;;;3.00;3.00;;;;;-3.10;81.54;98002.00;5097947;28;9549;-60
2024/01/17 05:19:23;;;;;;;;;3.20;3.20;;;;;-3.14;81.66;98001.34;5094553;28;8833;-58
2024/01/17 05:21:51;;;;;;;;;2.40;2.20;;;;;-3.18;81.53;97999.81;5076816;28;8939;-59
2024/01/17 05:24:18;;;;;;;;;2.20;2.20;;;;;-3.23;81.68;97993.19;5076225;28;8912;-60
2024/01/17 05:26:47;;;;;;;;;3.00;3.00;;;;;-3.26;81.85;97989.00;5075722;28;8832;-59
2024/01/17 05:29:15;;;;;;;;;5.80;5.20;;;;;-3.28;81.57;97980.44;5075034;28;8901;-60
2024/01/17 05:31:43;;;;;;;;;3.00;2.60;;;;;-3.29;81.60;97970.13;5083645;28;8795;-60
2024/01/17 05:34:10;;;;;;;;;1.80;1.80;;;;;-3.30;82.34;97961.50;5096539;28;8841;-59
2024/01/17 05:36:39;;;;;;;;;6.20;6.20;;;;;-3.29;81.67;97955.38;5096358;28;8826;-57
2024/01/17 05:39:07;;;;;;;;;3.00;2.20;;;;;-3.24;81.60;97949.91;5095744;28;8842;-58
2024/01/17 05:41:35;;;;;;;;;4.80;4.80;;;;;-3.21;82.21;97942.75;5076063;28;8832;-60
2024/01/17 05:44:03;;;;;;;;;3.00;3.00;;;;;-3.19;81.71;97940.91;5075776;28;8835;-59
2024/01/17 05:46:32;;;;;;;;;7.00;6.20;;;;;-3.16;82.22;97939.88;5074547;28;9518;-60
2024/01/17 05:49:00;;;;;;;;;4.40;4.00;;;;;-3.16;81.71;97934.69;5074918;28;8851;-58
2024/01/17 05:51:28;;;;;;;;;0.80;0.80;;;;;-3.17;81.78;97935.63;5086931;28;8814;-60
2024/01/17 05:53:56;;;;;;;;;1.40;1.40;;;;;-3.18;81.87;97939.97;5096433;28;8818;-59
2024/01/17 05:56:23;;;;;;;;;3.20;3.20;;;;;-3.19;81.70;97934.88;5096831;28;8850;-59
2024/01/17 05:58:51;;;;;;;;;5.60;4.40;;;;;-3.19;81.67;97930.50;5096468;28;8818;-59
2024/01/17 06:01:19;;;;;;;;;3.00;3.00;;;;;-3.18;81.71;97937.38;5077673;28;8832;-60
2024/01/17 06:03:47;;;;;;;;;3.40;2.60;;;;;-3.18;81.83;97936.56;5075542;28;8828;-59
2024/01/17 06:06:15;;;;;;;;;6.40;5.80;;;;;-3.18;81.65;97931.34;5076511;28;8812;-59
2024/01/17 06:08:42;;;;;;;;;4.00;4.00;;;;;-3.18;81.64;97920.94;5076259;28;8912;-59
2024/01/17 06:11:11;;;;;;;;;4.40;4.00;;;;;-3.16;81.74;97922.53;5076134;28;8847;-59
2024/01/17 06:13:39;;;;;;;;;4.00;4.00;;;;;-3.16;82.05;97914.72;5093109;28;8806;-59
2024/01/17 06:16:06;;;;;;;;;3.40;3.20;;;;;-3.11;81.73;97906.66;5076550;28;9496;-59
2024/01/17 06:18:34;;;;;;;;;1.80;1.80;;;;;-3.08;81.72;97896.91;5095887;28;8849;-59
2024/01/17 06:21:02;;;;;;;;;4.40;3.40;;;;;-3.03;81.76;97897.44;5093980;28;8841;-58
2024/01/17 06:23:30;;;;;;;;;3.40;3.40;;;;;-2.97;81.86;97888.44;5094557;28;8822;-59
2024/01/17 06:25:58;;;;;;;;;3.00;3.00;;;;;-2.91;81.75;97885.47;5094450;28;8826;-60
2024/01/17 06:28:26;;;;;;;;;3.00;3.00;;;;;-2.87;81.46;97887.00;5095770;28;8834;-60
2024/01/17 06:30:54;;;;;;;;;3.00;3.00;;;;;-2.82;81.20;97887.53;5096092;28;8848;-58
2024/01/17 06:33:22;;;;;;;;;3.00;2.20;;;;;-2.78;81.46;97878.63;5096263;28;8840;-60
2024/01/17 06:35:50;;;;;;;;;0.40;0.40;;;;;-2.78;81.55;97878.63;5096256;28;8806;-60
2024/01/17 06:38:18;;;;;;;;;3.60;3.20;;;;;-2.77;81.36;97868.13;5095259;28;8834;-57
2024/01/17 06:40:45;;;;;;;;;3.00;3.00;;;;;-2.75;81.20;97870.63;5096449;28;8825;-59
2024/01/17 06:43:13;;;;;;;;;3.00;3.00;;;;;-2.73;81.56;97868.78;5094845;28;8830;-58
2024/01/17 06:45:41;;;;;;;;;3.80;2.80;;;;;-2.72;81.41;97867.84;5094566;28;8859;-59
2024/01/17 06:48:09;;;;;;;;;4.00;4.00;;;;;-2.69;81.31;97867.66;5095058;28;8830;-60
2024/01/17 06:50:37;;;;;;;;;4.80;4.80;;;;;-2.66;81.45;97862.28;5094918;28;8822;-57
2024/01/17 06:53:05;;;;;;;;;3.00;3.00;;;;;-2.66;81.25;97863.09;5094380;28;8845;-57
2024/01/17 06:55:32;;;;;;;;;1.80;1.00;;;;;-2.66;81.28;97846.66;5093962;28;8868;-59
2024/01/17 06:58:00;;;;;;;;;0.00;0.00;;;;;-2.66;81.56;97844.88;5094560;28;8941;-59
2024/01/17 07:00:28;;;;;;;;;1.40;1.00;;;;;-2.64;81.50;97845.59;5094759;28;8810;-57
2024/01/17 07:03:00;;;;;;;;;0.60;0.60;;;;;-2.60;81.16;97841.06;5094977;28;8832;-59
2024/01/17 07:05:28;;;;;;;;;3.00;2.60;;;;;-2.56;81.06;97834.75;5094268;28;8974;-59
2024/01/17 07:07:56;;;;;;;;;2.20;1.80;;;;;-2.52;81.28;97834.47;5094484;28;8825;-59
2024/01/17 07:10:24;;;;;;;;;3.60;2.60;;;;;-2.49;81.37;97828.22;5093486;28;9546;-57
2024/01/17 07:12:52;;;;;;;;;4.40;4.00;;;;;-2.50;81.14;97818.75;5093292;28;8821;-59
2024/01/17 07:15:20;;;;;;;;;3.00;3.00;;;;;-2.48;80.92;97835.09;5093417;28;8852;-58
2024/01/17 07:17:48;;;;;;;;;0.00;0.00;;;;;-2.48;81.31;97828.16;5094407;28;8862;-58
2024/01/17 07:20:16;;;;;;;;;3.20;3.20;;;;;-2.46;80.90;97822.81;5093965;28;9415;-59
2024/01/17 07:22:44;;;;;;;;;3.20;3.20;;;;;-2.44;80.92;97810.56;5093932;28;8830;-60
2024/01/17 07:25:12;;;;;;;;;4.00;4.00;;;;;-2.44;81.32;97806.16;5094831;28;8860;-60
2024/01/17 07:27:40;;;;;;;;;1.80;1.80;;;;;-2.41;81.15;97807.75;5094823;28;8818;-58
2024/01/17 07:30:07;;;;;;;;;1.00;1.00;;;;;-2.40;81.20;97804.22;5095072;28;8837;-60
2024/01/17 07:32:36;;;;;;;;;1.80;1.80;;;;;-2.39;81.42;97798.06;5095087;28;8822;-58
2024/01/17 07:35:04;;;;;;;;;3.40;3.00;;;;;-2.39;81.07;97788.50;5095132;28;8825;-60
2024/01/17 07:37:32;;;;;;;;;3.00;3.00;;;;;-2.37;80.73;97775.34;5095290;28;8848;-59
2024/01/17 07:40:00;;;;;;;;;4.00;3.80;;;;;-2.34;80.48;97777.78;5094938;28;8837;-57
2024/01/17 07:42:28;;;;;;;;;3.20;2.20;;;;;-2.33;81.00;97766.41;5093994;28;8848;-59
2024/01/17 07:44:56;;;;;;;;;3.40;3.00;;;;;-2.34;80.84;97764.75;5092935;28;8822;-60
2024/01/17 07:47:24;;;;;;;;;3.60;3.60;;;;;-2.37;81.44;97746.69;5093309;28;8915;-60
2024/01/17 07:49:52;;;;;;;;;3.00;3.00;;;;;-2.36;81.09;97745.78;5093281;28;9728;-60
2024/01/17 07:52:20;;;;;;;;;3.60;3.00;;;;;-2.37;81.33;97741.47;5093231;28;8856;-58
2024/01/17 07:54:48;;;;;;;;;3.00;3.00;;;;;-2.34;81.52;97733.50;5094665;28;9511;-57
2024/01/17 07:57:16;;;;;;;;;5.20;4.00;;;;;-2.31;81.52;97735.88;5097028;28;8866;-60
2024/01/17 07:59:43;;;;;;;;;3.40;3.00;;;;;-2.30;80.97;97727.13;5096735;28;8831;-57
2024/01/17 08:02:11;;;;;;;;;4.80;4.40;;;;;-2.28;81.21;97722.69;5098119;28;8947;-60
2024/01/17 08:04:39;;;;;;;;;0.00;0.00;;;;;-2.26;80.99;97723.41;5097211;28;8818;-60
2024/01/17 08:07:08;;;;;;;;;5.00;5.00;;;;;-2.25;81.05;97723.31;5097089;28;9580;-57
2024/01/17 08:09:36;;;;;;;;;4.60;4.40;;;;;-2.21;81.03;97718.75;5097641;28;8822;-59
2024/01/17 08:12:04;;;;;;;;;5.60;5.60;;;;;-2.18;80.72;97706.34;5097176;28;8830;-58
2024/01/17 08:14:33;;;;;;;;;6.40;6.00;;;;;-2.14;81.01;97699.19;5097416;28;8814;-59
2024/01/17 08:17:01;;;;;;;;;7.40;7.40;;;;;-2.08;81.06;97683.97;5097840;28;8853;-57
2024/01/17 08:19:29;;;;;;;;;4.00;4.00;;;;;-2.02;81.21;97682.72;5097926;28;8826;-58
2024/01/17 08:21:57;;;;;;;;;4.60;4.00;;;;;-1.94;80.90;97680.44;5097402;28;8841;-58
2024/01/17 08:24:25;;;;;;;;;3.60;3.00;;;;;-1.88;80.95;97675.69;5096977;28;8838;-58
2024/01/17 08:26:52;;;;;;;;;3.40;3.40;;;;;-1.84;80.24;97668.44;5097517;28;8829;-58
2024/01/17 08:29:21;;;;;;;;;3.40;3.40;;;;;-1.77;80.49;97654.91;5096830;28;8833;-57
2024/01/17 08:31:49;;;;;;;;;1.40;1.40;;;;;-1.71;80.45;97651.06;5096758;28;8841;-58
2024/01/17 08:34:20;;;;;;;;;1.00;1.00;;;;;-1.67;80.58;97647.31;5095996;28;8895;-60
2024/01/17 08:36:48;;;;;;;;;3.00;3.00;;;;;-1.63;80.12;97641.78;5096465;28;8964;-58
2024/01/17 08:39:16;;;;;;;;;7.80;7.00;;;;;-1.55;79.84;97630.81;5094982;28;8846;-60
2024/01/17 08:41:45;;;;;;;;;8.80;7.80;;;;;-1.50;80.15;97626.97;5097360;28;8872;-60
2024/01/17 08:44:14;;;;;;;;;3.20;2.60;;;;;-1.43;80.06;97622.16;5097365;28;8984;-58
2024/01/17 08:46:42;;;;;;;;;6.00;6.00;;;;;-1.38;79.89;97623.50;5097329;28;8869;-59
2024/01/17 08:49:13;;;;;;;;;0.60;0.60;;;;;-1.34;79.89;97617.16;5097779;28;8886;-58
2024/01/17 08:51:40;;;;;;;;;4.80;4.60;;;;;-1.28;80.04;97614.13;5097698;28;8896;-59
2024/01/17 08:54:10;;;;;;;;;8.20;8.20;;;;;-1.24;79.97;97605.13;5096324;28;8883;-56
2024/01/17 08:56:38;;;;;;;;;6.00;6.00;;;;;-1.19;79.49;97597.81;5096759;28;8837;-59
2024/01/17 08:59:06;;;;;;;;;2.20;2.20;;;;;-1.14;79.63;97587.03;5096937;28;8877;-58
2024/01/17 09:01:34;;;;;;;;;3.80;1.80;;;;;-1.09;79.39;97582.31;5096457;28;8822;-60
2024/01/17 09:04:02;;;;;;;;;3.80;3.20;;;;;-1.05;79.57;97575.94;5096515;28;8830;-59
2024/01/17 09:06:30;;;;;;;;;3.40;3.40;;;;;-0.98;79.50;97574.56;5097074;28;9502;-58
2024/01/17 09:08:58;;;;;;;;;3.20;3.00;;;;;-0.88;79.85;97572.94;5097027;28;8907;-60
2024/01/17 09:11:26;;;;;;;;;2.60;2.60;;;;;-0.81;79.52;97571.56;5096963;28;8968;-58
2024/01/17 09:13:54;;;;;;;;;1.00;1.00;;;;;-0.72;79.58;97566.50;5097077;28;8858;-59
2024/01/17 09:16:21;;;;;;;;;2.60;2.60;;;;;-0.62;79.43;97564.06;5096850;28;8842;-59
2024/01/17 09:18:48;;;;;;;;;2.40;2.40;;;;;-0.54;79.17;97570.38;5096625;28;8830;-60
2024/01/17 09:21:17;;;;;;;;;3.80;3.40;;;;;-0.43;78.99;97572.22;5096176;28;8874;-58
2024/01/17 09:23:45;;;;;;;;;6.00;4.00;;;;;-0.34;78.84;97576.75;5095797;28;8984;-59
2024/01/17 09:26:13;;;;;;;;;10.40;9.20;;;;;-0.28;78.85;97566.69;5094769;28;8914;-59
2024/01/17 09:28:40;;;;;;;;;6.20;6.00;;;;;-0.21;78.86;97570.53;5095586;28;8864;-59
2024/01/17 09:31:09;;;;;;;;;3.60;2.60;;;;;-0.15;78.45;97553.53;5096170;28;8821;-59
2024/01/17 09:33:36;;;;;;;;;6.00;5.60;;;;;-0.10;78.96;97554.84;5095963;28;8834;-57
2024/01/17 09:36:05;;;;;;;;;3.00;3.00;;;;;-0.01;78.29;97543.69;5094678;28;8814;-58
2024/01/17 09:38:33;;;;;;;;;5.00;2.20;;;;;0.06;78.20;97545.72;5094175;28;9533;-58
2024/01/17 09:41:02;;;;;;;;;3.20;3.00;;;;;0.14;78.40;97538.13;5096045;28;8842;-58
2024/01/17 09:43:30;;;;;;;;;1.80;1.00;;;;;0.21;78.42;97536.72;5095846;28;8850;-58
2024/01/17 09:45:59;;;;;;;;;3.40;3.20;;;;;0.27;78.51;97522.31;5095250;28;8830;-59
2024/01/17 09:48:27;;;;;;;;;3.00;3.00;;;;;0.32;77.94;97526.25;5095827;28;8826;-58
2024/01/17 09:50:55;;;;;;;;;2.80;1.00;;;;;0.41;78.57;97525.56;5094128;28;8821;-58
2024/01/17 09:53:23;;;;;;;;;1.40;1.40;;;;;0.50;77.54;97524.81;5094427;28;8902;-59
2024/01/17 09:55:52;;;;;;;;;3.40;3.20;;;;;0.56;78.06;97526.13;5094430;28;8849;-58
2024/01/17 09:58:20;;;;;;;;;5.60;3.20;;;;;0.64;77.75;97521.13;5095150;28;8842;-60
2024/01/17 10:00:48;;;;;;;;;6.80;6.00;;;;;0.70;77.62;97513.59;5094733;28;8834;-59
2024/01/17 10:03:20;;;;;;;;;3.60;3.60;;;;;0.75;77.55;97510.63;5094871;28;8853;-60
2024/01/17 10:05:49;;;;;;;;;3.80;3.40;;;;;0.82;77.68;97507.41;5094637;28;8846;-58
2024/01/17 10:08:17;;;;;;;;;4.40;3.60;;;;;0.88;77.91;97499.06;5095319;28;8920;-59
2024/01/17 10:10:45;;;;;;;;;4.00;3.60;;;;;0.94;77.55;97493.34;5095639;28;8833;-58
2024/01/17 10:13:13;;;;;;;;;4.00;4.00;;;;;1.01;77.76;97483.19;5095412;28;8822;-58
2024/01/17 10:15:40;;;;;;;;;6.60;5.60;;;;;1.08;77.71;97489.59;5094264;28;8814;-60
2024/01/17 10:18:08;;;;;;;;;6.00;3.80;;;;;1.12;77.96;97473.50;5093684;28;8919;-60
2024/01/17 10:20:36;;;;;;;;;1.00;1.00;;;;;1.15;77.39;97464.56;5094952;28;8832;-58
2024/01/17 10:23:04;;;;;;;;;4.40;4.20;;;;;1.18;77.08;97469.53;5094606;28;8826;-61
2024/01/17 10:25:32;;;;;;;;;1.80;1.80;;;;;1.22;77.16;97463.09;5094850;28;8806;-60
2024/01/17 10:28:01;;;;;;;;;3.00;3.00;;;;;1.25;77.30;97449.75;5094719;28;8822;-58
2024/01/17 10:30:29;;;;;;;;;3.20;3.20;;;;;1.27;77.46;97445.19;5094600;28;8830;-58
2024/01/17 10:32:57;;;;;;;;;4.00;3.80;;;;;1.29;77.00;97445.94;5093544;28;8821;-60
2024/01/17 10:35:25;;;;;;;;;1.00;1.00;;;;;1.32;77.52;97446.50;5091815;28;8834;-60
2024/01/17 10:37:53;;;;;;;;;3.60;3.40;;;;;1.34;77.79;97441.97;5093015;28;8822;-60
2024/01/17 10:40:24;;;;;;;;;6.00;6.00;;;;;1.39;77.06;97446.81;5093161;28;8826;-60
2024/01/17 10:42:51;;;;;;;;;4.40;4.00;;;;;1.42;77.72;97441.31;5093255;28;8976;-61
2024/01/17 10:45:20;;;;;;;;;9.60;5.20;;;;;1.42;77.07;97436.91;5093527;28;8841;-60
2024/01/17 10:47:48;;;;;;;;;4.00;2.40;;;;;1.43;77.70;97428.09;5093407;28;8845;-61
2024/01/17 10:50:17;;;;;;;;;4.80;4.00;;;;;1.44;77.23;97427.13;5092870;28;8922;-59
2024/01/17 10:52:45;;;;;;;;;1.40;1.40;;;;;1.46;77.82;97429.63;5093947;28;8837;-58
2024/01/17 10:55:13;;;;;;;;;4.40;4.00;;;;;1.47;77.63;97428.66;5094356;28;8831;-59
2024/01/17 10:57:41;;;;;;;;;1.00;1.00;;;;;1.49;77.59;97430.19;5093721;28;8991;-58
2024/01/17 11:00:11;;;;;;;;;5.60;4.60;;;;;1.53;77.25;97423.72;5092921;28;8834;-58
2024/01/17 11:02:39;;;;;;;;;4.00;4.00;;;;;1.53;77.25;97413.25;5093061;28;8850;-58
2024/01/17 11:05:07;;;;;;;;;6.20;4.00;;;;;1.54;77.39;97412.31;5092731;28;8842;-60
2024/01/17 11:07:35;;;;;;;;;5.40;5.40;;;;;1.57;77.70;97412.03;5093668;28;8971;-60
2024/01/17 11:10:04;;;;;;;;;3.80;3.80;;;;;1.57;77.59;97408.56;5093504;28;8969;-57
2024/01/17 11:12:32;;;;;;;;;1.40;1.00;;;;;1.56;77.17;97406.91;5093080;28;8854;-58
2024/01/17 11:15:00;;;;;;;;;6.40;6.40;;;;;1.57;77.41;97406.78;5093382;28;8834;-60
2024/01/17 11:17:35;;;;;;;;;4.80;3.60;;;;;1.58;77.95;97403.22;5093630;28;8830;-58
2024/01/17 11:20:03;;;;;;;;;1.00;1.00;;;;;1.58;77.86;97395.34;5093808;28;8852;-60
2024/01/17 11:22:32;;;;;;;;;5.20;4.00;;;;;1.59;77.55;97397.00;5093899;28;8846;-60
2024/01/17 11:25:01;;;;;;;;;4.00;4.00;;;;;1.59;77.32;97386.50;5094393;28;8841;-58
2024/01/17 11:27:29;;;;;;;;;5.60;3.40;;;;;1.60;77.51;97376.88;5093949;28;8846;-58
2024/01/17 11:29:57;;;;;;;;;4.00;3.40;;;;;1.62;77.15;97377.56;5095190;28;8845;-60
2024/01/17 11:32:25;;;;;;;;;6.00;5.20;;;;;1.64;77.75;97373.00;5096994;28;8841;-58
2024/01/17 11:34:53;;;;;;;;;11.20;11.20;;;;;1.67;77.86;97370.94;5096268;28;8908;-59
2024/01/17 11:37:21;;;;;;;;;6.60;6.20;;;;;1.68;77.98;97370.00;5095914;28;9365;-60
2024/01/17 11:39:49;;;;;;;;;6.80;6.80;;;;;1.73;77.52;97372.22;5095091;28;8833;-60
2024/01/17 11:42:17;;;;;;;;;6.20;6.00;;;;;1.78;77.37;97365.63;5096280;28;8915;-59
2024/01/17 11:44:45;;;;;;;;;0.00;0.00;;;;;1.80;77.69;97352.38;5096535;28;8897;-61
2024/01/17 11:47:21;;;;;;;;;1.00;1.00;;;;;1.84;76.90;97348.53;5096593;28;8854;-57